Terminal Aerodrome Forecast
Issued by NWS Cleveland, OH

Home | Current Version | Previous Version | Text Only | Print | Product List | Glossary On
Versions: 1 2 3 4 5 6 7 8 9 10 11 12 13 14 15 16
000
FTUS41 KCLE 211132
TAFYNG
TAF
KYNG 211132Z 2112/2212 00000KT 3SM BR FEW250
      TEMPO 2112/2113 1SM BR SCT003
     FM211400 00000KT 5SM BR SCT006
     FM211500 15003KT P6SM SCT250
     FM211800 14004KT P6SM SCT045
     FM220000 07003KT P6SM FEW250
     FM220900 11003KT 4SM BR FEW250=

USA.gov is the U.S. government's official web portal to all federal, state and local government web resources and services.